Huvudsida
METAR-TAF:

METAR-TAF

Flygplatser :

Rarotonga International Airport

Rarotonga, Cooköarna

latitud: 21-12S, longitud: 159-49W, höjd: 7 m

Aktuellt väderrapport

Denna rapport gjordes för 49 minuter sedan, klockan 07:00 UTC
Vind 2 kt från ost/sydost
Temperatur 23°C
Fuktighet 89%
Tryck 1016 hPa
Sikt 10 km eller mer
Få moln på en höjd av 2500 ft

METAR: NCRG 220700Z 11002KT 9999 FEW025 23/21 Q1016 DEW

Tid: 21:49 (07:49 UTC)

Väderprognos

Denna rapport gjordes för 2 timmar och 29 minuter sedan, klockan 05:20 UTC
Prognos gäller från 22 kl. 06 UTC till 23 kl. 06 UTC
Vind 8 kt från ost
Sikt 10 km eller mer
Spridda moln på en höjd av 2100 ft
Brutna moln på en höjd av 4000 ft

TAF: NCRG 220520Z 2206/2306 10008KT 9999 SCT021 BKN040

Aktuella väderrapporter och prognoser från 4000 flygplatser (METAR- och TAF-rapporter).

De tillgängliga stationerna syns som gula och röda prickar på kartan.

För musen över prickarna för att se namnen på stationerna.

Klicka sedan för att få väderrapporter och prognoser.

För att ändra kartan: Klicka på de gröna knapparna med ett svart kors på för att zooma in; den gröna knappen med ett streck på för att zooma ut; eller på de gröna pilarna för angränsande kartor.


METAR-TAF: